createdAt,value
2023-02-04T06:02:06.654Z,85.10
2023-02-04T06:07:10.316Z,85.10
2023-02-04T06:12:13.875Z,85.00
2023-02-04T06:17:18.798Z,84.70
2023-02-04T06:22:24.434Z,84.80
2023-02-04T06:27:28.002Z,85.00
2023-02-04T06:32:32.965Z,85.20
2023-02-04T06:37:36.698Z,85.10
2023-02-04T06:42:40.284Z,85.20
2023-02-04T06:47:45.190Z,85.10
2023-02-04T06:52:49.224Z,85.20
2023-02-04T06:57:52.763Z,85.30
2023-02-04T07:02:58.642Z,85.60
2023-02-04T07:08:02.368Z,86.10
2023-02-04T07:13:05.908Z,85.90
2023-02-04T07:18:10.892Z,85.50
2023-02-04T07:23:14.436Z,85.50
2023-02-04T07:28:18.268Z,85.50
2023-02-04T07:33:23.647Z,85.20
2023-02-04T07:38:27.228Z,85.30
2023-02-04T07:43:30.797Z,85.40
2023-02-04T07:48:35.756Z,85.40
2023-02-04T07:53:39.411Z,85.30
2023-02-04T07:58:42.925Z,85.80
2023-02-04T08:03:47.970Z,85.50
2023-02-04T08:08:51.642Z,85.50
2023-02-04T08:13:55.288Z,85.80
2023-02-04T08:19:00.212Z,86.10
2023-02-04T08:24:03.795Z,85.80
2023-02-04T08:29:07.334Z,86.00
2023-02-04T08:34:12.296Z,85.90
2023-02-04T08:39:15.987Z,86.00
2023-02-04T08:44:19.593Z,85.50
2023-02-04T08:49:24.581Z,86.00
2023-02-04T08:54:30.635Z,86.10
2023-02-04T08:59:34.335Z,86.00
2023-02-04T09:04:39.333Z,85.80
2023-02-04T09:09:42.912Z,85.90
2023-02-04T09:14:46.558Z,86.10
2023-02-04T09:19:51.534Z,86.00
2023-02-04T09:24:55.122Z,85.80
2023-02-04T09:29:58.836Z,85.50
2023-02-04T09:35:03.796Z,85.40
2023-02-04T09:40:08.098Z,85.20
2023-02-04T09:45:17.099Z,85.30
2023-02-04T09:50:24.722Z,85.30
2023-02-04T09:55:31.504Z,85.20
2023-02-04T10:00:36.444Z,85.30
2023-02-04T10:05:41.501Z,85.20
2023-02-04T10:10:46.536Z,85.30
2023-02-04T10:15:51.554Z,85.20
2023-02-04T10:21:01.941Z,85.30
2023-02-04T10:26:06.319Z,85.10
2023-02-04T10:31:33.213Z,85.00
2023-02-04T10:36:38.906Z,84.70
2023-02-04T10:41:49.721Z,84.60
2023-02-04T10:47:00.891Z,84.20
2023-02-04T10:52:17.712Z,84.30
2023-02-04T10:57:24.392Z,84.10
2023-02-04T11:02:44.895Z,83.90
2023-02-04T11:07:50.854Z,84.00
2023-02-04T11:13:06.349Z,83.90
2023-02-04T11:18:11.837Z,83.80
2023-02-04T11:23:33.359Z,83.80
2023-02-04T11:29:10.294Z,83.70
2023-02-04T11:34:27.751Z,83.40
2023-02-04T11:39:37.438Z,83.20
2023-02-04T11:44:41.094Z,83.20
2023-02-04T11:49:46.391Z,82.90
2023-02-04T11:54:56.846Z,82.80
2023-02-04T12:00:01.621Z,82.40
2023-02-04T12:05:16.440Z,82.10
2023-02-04T12:10:28.212Z,81.80
2023-02-04T12:15:35.982Z,81.40
2023-02-04T12:20:40.378Z,81.20
2023-02-04T12:25:45.390Z,80.80
2023-02-04T12:30:49.243Z,80.80
2023-02-04T12:35:52.864Z,80.60
2023-02-04T12:40:57.845Z,80.30
2023-02-04T12:46:01.659Z,80.20
2023-02-04T12:51:05.609Z,79.90
2023-02-04T12:56:10.549Z,79.70
2023-02-04T13:01:14.198Z,79.50
2023-02-04T13:06:17.822Z,79.40
2023-02-04T13:11:23.057Z,79.70
2023-02-04T13:16:26.699Z,78.90
2023-02-04T13:21:31.327Z,78.70
2023-02-04T13:26:36.258Z,78.50
2023-02-04T13:31:39.906Z,78.50
2023-02-04T13:36:44.570Z,78.60
2023-02-04T13:41:49.527Z,78.50
2023-02-04T13:46:53.393Z,78.30
2023-02-04T13:51:57.004Z,78.20
2023-02-04T13:57:02.093Z,77.90
2023-02-04T14:02:05.745Z,77.90
2023-02-04T14:07:09.345Z,78.00
2023-02-04T14:12:14.296Z,78.10
2023-02-04T14:17:18.023Z,77.90
2023-02-04T14:22:21.929Z,77.90
2023-02-04T14:27:27.307Z,77.70
2023-02-04T14:32:30.965Z,78.10
2023-02-04T14:37:34.518Z,77.90
2023-02-04T14:42:39.752Z,77.90
2023-02-04T14:47:43.471Z,77.80
2023-02-04T14:52:47.036Z,77.70
2023-02-04T14:57:52.183Z,77.70
2023-02-04T15:02:55.740Z,77.50
2023-02-04T15:07:59.304Z,77.70
2023-02-04T15:13:04.327Z,77.70
2023-02-04T15:18:08.033Z,77.60
2023-02-04T15:23:13.144Z,77.50
2023-02-04T15:28:18.087Z,77.50
2023-02-04T15:33:21.726Z,77.20
2023-02-04T15:38:25.742Z,77.10
2023-02-04T15:43:30.733Z,77.10
2023-02-04T15:48:34.434Z,77.10
2023-02-04T15:53:38.037Z,77.20
2023-02-04T15:58:43.032Z,77.60
2023-02-04T16:03:47.292Z,77.70
2023-02-04T16:08:51.020Z,77.70
2023-02-04T16:13:58.795Z,77.70
2023-02-04T16:19:02.393Z,77.70
2023-02-04T16:24:06.766Z,77.80
2023-02-04T16:29:11.793Z,77.90
2023-02-04T16:34:15.527Z,77.80
2023-02-04T16:39:19.094Z,77.70
2023-02-04T16:44:24.421Z,77.70
2023-02-04T16:49:28.014Z,77.50
2023-02-04T16:54:32.278Z,76.90
2023-02-04T16:59:38.322Z,76.80
2023-02-04T17:04:41.960Z,76.70
2023-02-04T17:09:45.553Z,76.70
2023-02-04T17:14:50.510Z,76.40
2023-02-04T17:19:54.306Z,76.40
2023-02-04T17:24:57.842Z,76.00
2023-02-04T17:30:02.777Z,75.90
2023-02-04T17:35:06.806Z,76.00
2023-02-04T17:40:13.781Z,76.00
2023-02-04T17:45:19.221Z,75.80
2023-02-04T17:50:22.822Z,75.90
2023-02-04T17:55:28.688Z,75.80
2023-02-04T18:00:34.278Z,75.90
2023-02-04T18:05:38.660Z,76.20
2023-02-04T18:10:44.187Z,76.20
2023-02-04T18:15:53.196Z,76.40
2023-02-04T18:21:01.373Z,76.40
2023-02-04T18:26:13.134Z,76.20
2023-02-04T18:31:34.546Z,75.90
2023-02-04T18:36:38.716Z,75.80
2023-02-04T18:41:45.069Z,75.90
2023-02-04T18:46:50.052Z,75.70
2023-02-04T18:51:54.104Z,75.80
2023-02-04T18:57:17.289Z,75.70
2023-02-04T19:02:36.558Z,75.60
2023-02-04T19:07:40.194Z,75.70
2023-02-04T19:12:44.096Z,75.70
2023-02-04T19:17:49.183Z,75.80
2023-02-04T19:22:55.168Z,75.80
2023-02-04T19:28:00.281Z,75.90
2023-02-04T19:33:17.512Z,76.00
2023-02-04T19:38:39.996Z,76.10
2023-02-04T19:43:43.645Z,76.20
2023-02-04T19:48:49.403Z,76.30
2023-02-04T19:53:59.082Z,76.40
2023-02-04T19:59:22.988Z,76.60
2023-02-04T20:04:35.666Z,76.50
2023-02-04T20:09:39.233Z,76.70
2023-02-04T20:14:48.573Z,76.90
2023-02-04T20:19:53.982Z,77.00
2023-02-04T20:25:00.588Z,77.10
2023-02-04T20:30:24.597Z,77.00
2023-02-04T20:36:20.040Z,77.40
2023-02-04T20:41:25.101Z,77.60
2023-02-04T20:46:28.847Z,77.70
2023-02-04T20:51:35.559Z,77.80
2023-02-04T20:56:41.568Z,78.20
2023-02-04T21:01:47.048Z,78.30
2023-02-04T21:06:52.483Z,78.80
2023-02-04T21:11:58.570Z,78.80
2023-02-04T21:17:02.454Z,78.80
2023-02-04T21:22:06.061Z,78.90
2023-02-04T21:27:11.071Z,79.00
2023-02-04T21:32:14.923Z,79.20
2023-02-04T21:37:18.590Z,79.20
2023-02-04T21:42:23.836Z,79.40
2023-02-04T21:47:27.498Z,79.40
2023-02-04T21:52:31.045Z,79.70
2023-02-04T21:57:36.000Z,79.80
2023-02-04T22:02:39.619Z,79.90
2023-02-04T22:07:43.152Z,80.10
2023-02-04T22:12:48.432Z,80.30
2023-02-04T22:17:53.611Z,80.70
2023-02-04T22:22:57.487Z,81.00
2023-02-04T22:28:02.562Z,81.20
2023-02-04T22:33:06.272Z,81.30
2023-02-04T22:38:09.902Z,81.40
2023-02-04T22:43:14.861Z,81.50
2023-02-04T22:48:18.427Z,81.50
2023-02-04T22:53:22.086Z,81.70
2023-02-04T22:58:27.149Z,82.10
2023-02-04T23:03:30.711Z,82.30
2023-02-04T23:08:34.502Z,82.30
2023-02-04T23:13:39.728Z,82.40
2023-02-04T23:18:43.338Z,82.50
2023-02-04T23:23:47.083Z,82.80
2023-02-04T23:28:52.175Z,83.00
